createdAt,value
2023-01-19T00:00:32.193Z,7.18
2023-01-19T00:02:05.040Z,6.80
2023-01-19T00:03:36.953Z,6.55
2023-01-19T00:05:10.374Z,6.45
2023-01-19T00:06:43.072Z,6.55
2023-01-19T00:08:16.222Z,6.97
2023-01-19T00:09:50.213Z,6.65
2023-01-19T00:11:22.904Z,6.38
2023-01-19T00:12:55.591Z,6.32
2023-01-19T00:14:28.270Z,6.60
2023-01-19T00:16:00.965Z,6.72
2023-01-19T00:17:33.690Z,6.78
2023-01-19T00:19:06.351Z,6.53
2023-01-19T00:20:39.515Z,7.07
2023-01-19T00:22:12.200Z,6.57
2023-01-19T00:23:47.288Z,6.68
2023-01-19T00:25:21.303Z,6.55
2023-01-19T00:26:54.015Z,6.75
2023-01-19T00:28:26.757Z,6.80
2023-01-19T00:29:59.443Z,6.82
2023-01-19T00:31:33.900Z,6.95
2023-01-19T00:33:05.738Z,7.13
2023-01-19T00:34:39.473Z,7.45
2023-01-19T00:36:12.193Z,7.78
2023-01-19T00:37:46.134Z,8.05
2023-01-19T00:39:18.826Z,8.18
2023-01-19T00:40:52.839Z,8.25
2023-01-19T00:42:44.219Z,8.18
2023-01-19T00:44:16.900Z,8.27
2023-01-19T00:45:49.623Z,8.60
2023-01-19T00:47:21.347Z,7.70
2023-01-19T00:48:54.039Z,8.13
2023-01-19T00:50:29.177Z,8.57
2023-01-19T00:52:01.949Z,8.90
2023-01-19T00:53:34.644Z,9.23
2023-01-19T00:55:08.926Z,8.82
2023-01-19T00:56:42.960Z,8.50
2023-01-19T00:58:15.651Z,9.05
2023-01-19T00:59:48.311Z,9.13
2023-01-19T01:01:21.121Z,8.10
2023-01-19T01:03:13.943Z,9.02
2023-01-19T01:04:45.810Z,8.93
2023-01-19T01:06:18.482Z,8.63
2023-01-19T01:07:50.743Z,9.25
2023-01-19T01:09:24.186Z,8.80
2023-01-19T01:10:57.419Z,9.30
2023-01-19T01:12:30.459Z,8.98
2023-01-19T01:14:03.402Z,9.35
2023-01-19T01:15:36.181Z,9.75
2023-01-19T01:17:11.223Z,9.57
2023-01-19T01:18:44.625Z,9.57
2023-01-19T01:20:20.066Z,9.45
2023-01-19T01:21:52.823Z,9.07
2023-01-19T01:23:25.526Z,8.70
2023-01-19T01:24:58.212Z,9.05
2023-01-19T01:26:30.907Z,9.25
2023-01-19T01:28:06.892Z,9.05
2023-01-19T01:29:41.020Z,9.82
2023-01-19T01:31:13.776Z,9.55
2023-01-19T01:32:46.745Z,9.50
2023-01-19T01:34:19.800Z,9.95
2023-01-19T01:35:52.688Z,9.45
2023-01-19T01:37:24.493Z,9.23
2023-01-19T01:38:57.184Z,9.80
2023-01-19T01:40:29.890Z,10.10
2023-01-19T01:42:02.746Z,10.00
2023-01-19T01:43:58.285Z,9.93
2023-01-19T01:45:33.936Z,8.68
2023-01-19T01:47:05.832Z,9.27
2023-01-19T01:48:40.436Z,9.75
2023-01-19T01:50:18.750Z,9.52
2023-01-19T01:51:53.501Z,9.63
2023-01-19T01:53:26.229Z,9.18
2023-01-19T01:54:59.465Z,10.20
2023-01-19T01:56:35.833Z,9.00
2023-01-19T01:58:10.207Z,9.60
2023-01-19T01:59:48.251Z,9.90
2023-01-19T02:01:38.749Z,9.23
2023-01-19T02:03:10.685Z,9.52
2023-01-19T02:04:48.189Z,9.63
2023-01-19T02:06:22.225Z,9.50
2023-01-19T02:08:19.463Z,9.15
2023-01-19T02:10:10.418Z,8.52
2023-01-19T02:12:01.279Z,8.07
2023-01-19T02:13:36.400Z,8.88
2023-01-19T02:15:17.391Z,9.50
2023-01-19T02:16:50.185Z,9.07
2023-01-19T02:18:25.112Z,9.15
2023-01-19T02:19:58.338Z,9.00
2023-01-19T02:21:37.216Z,8.75
2023-01-19T02:23:18.313Z,9.15
2023-01-19T02:24:52.963Z,9.98
2023-01-19T02:26:29.512Z,9.50
2023-01-19T02:28:03.325Z,9.30
2023-01-19T02:29:36.465Z,9.23
2023-01-19T02:31:10.533Z,9.07
2023-01-19T02:32:43.730Z,8.88
2023-01-19T02:34:18.539Z,8.95
2023-01-19T02:35:52.203Z,9.15
2023-01-19T02:37:26.863Z,8.52
2023-01-19T02:39:01.990Z,9.57
2023-01-19T02:40:38.458Z,8.57
2023-01-19T02:42:16.024Z,9.15
2023-01-19T02:43:49.748Z,9.27
2023-01-19T02:45:23.890Z,9.63
2023-01-19T02:46:56.583Z,9.65
2023-01-19T02:48:29.261Z,8.73
2023-01-19T02:50:02.099Z,8.85
2023-01-19T02:51:35.371Z,8.63
2023-01-19T02:53:33.997Z,9.73
2023-01-19T02:55:15.887Z,9.63
2023-01-19T02:57:11.589Z,8.45
2023-01-19T02:58:49.537Z,8.88
2023-01-19T03:00:33.515Z,9.32
2023-01-19T03:02:22.487Z,9.00
2023-01-19T03:03:58.856Z,9.05
2023-01-19T03:05:41.615Z,10.10
2023-01-19T03:07:19.711Z,9.02
2023-01-19T03:08:57.649Z,9.55
2023-01-19T03:10:35.536Z,9.20
2023-01-19T03:12:15.334Z,9.65
2023-01-19T03:13:52.887Z,9.75
2023-01-19T03:15:31.412Z,9.88
2023-01-19T03:17:08.465Z,9.35
2023-01-19T03:18:43.678Z,10.00
2023-01-19T03:20:20.771Z,9.48
2023-01-19T03:21:58.939Z,10.43
2023-01-19T03:23:32.438Z,10.27
2023-01-19T03:25:06.961Z,10.00
2023-01-19T03:26:44.837Z,9.82
2023-01-19T03:28:21.248Z,9.98
2023-01-19T03:29:58.180Z,9.98
2023-01-19T03:31:34.023Z,9.65
2023-01-19T03:33:09.480Z,9.95
2023-01-19T03:34:44.084Z,9.88
2023-01-19T03:36:20.845Z,9.48
2023-01-19T03:37:55.916Z,9.95
2023-01-19T03:39:29.768Z,10.15
2023-01-19T03:41:05.681Z,9.75
2023-01-19T03:42:39.841Z,9.77
2023-01-19T03:44:14.105Z,9.95
2023-01-19T03:45:48.111Z,9.82
2023-01-19T03:47:21.223Z,9.52
2023-01-19T03:48:54.867Z,10.75
2023-01-19T03:50:29.971Z,9.95
2023-01-19T03:52:01.974Z,10.30
2023-01-19T03:53:34.690Z,10.05
2023-01-19T03:55:09.698Z,10.60
2023-01-19T03:56:43.382Z,10.57
2023-01-19T03:58:16.069Z,10.07
2023-01-19T03:59:50.445Z,10.35
2023-01-19T04:01:23.714Z,9.95
2023-01-19T04:02:56.600Z,9.88
2023-01-19T04:04:29.468Z,10.02
2023-01-19T04:06:02.212Z,10.27
2023-01-19T04:07:33.967Z,10.07
2023-01-19T04:09:06.686Z,10.07
2023-01-19T04:10:39.505Z,9.98
2023-01-19T04:12:12.193Z,10.15
2023-01-19T04:13:44.793Z,11.73
2023-01-19T04:15:19.360Z,12.88
2023-01-19T04:16:52.101Z,16.80
2023-01-19T04:18:24.780Z,13.48
2023-01-19T04:19:57.459Z,10.63
2023-01-19T04:21:29.193Z,11.45
2023-01-19T04:23:02.852Z,10.95
2023-01-19T04:24:35.813Z,15.60
2023-01-19T04:26:08.525Z,22.70
2023-01-19T04:27:41.223Z,22.63
2023-01-19T04:29:14.924Z,15.82
2023-01-19T04:30:50.750Z,12.23
2023-01-19T04:32:23.467Z,20.48
2023-01-19T04:33:57.214Z,13.68
2023-01-19T04:35:29.914Z,16.70
2023-01-19T04:37:02.729Z,14.50
2023-01-19T04:38:35.892Z,13.65
2023-01-19T04:40:10.389Z,13.23
2023-01-19T04:41:42.161Z,10.82
2023-01-19T04:43:15.188Z,16.30
2023-01-19T04:44:47.955Z,11.68
2023-01-19T04:46:22.049Z,13.80
2023-01-19T04:47:55.644Z,15.05
2023-01-19T04:49:28.303Z,13.40
2023-01-19T04:51:01.045Z,11.68
2023-01-19T04:52:34.987Z,10.40
2023-01-19T04:54:08.834Z,11.20
2023-01-19T04:55:41.125Z,10.30
2023-01-19T04:57:13.896Z,10.95
2023-01-19T04:58:46.594Z,10.20
2023-01-19T05:00:20.685Z,11.27
2023-01-19T05:01:55.892Z,11.48
2023-01-19T05:03:28.686Z,11.20
2023-01-19T05:05:00.832Z,10.95
2023-01-19T05:06:33.764Z,12.48
2023-01-19T05:08:06.895Z,12.27
2023-01-19T05:09:39.668Z,11.57
2023-01-19T05:11:12.347Z,12.57
2023-01-19T05:12:45.135Z,14.15
2023-01-19T05:14:17.921Z,12.65
2023-01-19T05:15:50.772Z,12.27
2023-01-19T05:17:25.029Z,12.30
2023-01-19T05:18:57.720Z,12.70
2023-01-19T05:20:30.403Z,12.45
2023-01-19T05:22:03.745Z,12.25
2023-01-19T05:23:36.521Z,11.95
2023-01-19T05:25:10.005Z,12.40
2023-01-19T05:26:43.412Z,11.38
2023-01-19T05:28:16.703Z,11.68
2023-01-19T05:29:49.407Z,11.68
2023-01-19T05:31:22.288Z,12.48
2023-01-19T05:32:56.360Z,12.73
2023-01-19T05:34:29.099Z,12.05
2023-01-19T05:36:02.021Z,11.70
2023-01-19T05:37:34.707Z,11.57
2023-01-19T05:39:07.788Z,11.70
2023-01-19T05:40:40.463Z,11.65
2023-01-19T05:42:13.149Z,11.15
2023-01-19T05:43:45.899Z,11.32
2023-01-19T05:45:18.589Z,11.10
2023-01-19T05:46:51.341Z,11.10
2023-01-19T05:48:25.689Z,11.00
2023-01-19T05:49:58.564Z,10.48
2023-01-19T05:51:35.040Z,11.13
2023-01-19T05:53:07.704Z,9.85
2023-01-19T05:54:41.040Z,9.82
2023-01-19T05:56:13.720Z,9.98
2023-01-19T05:57:46.471Z,9.52
2023-01-19T05:59:23.939Z,10.20
2023-01-19T06:01:03.280Z,9.82
2023-01-19T06:02:36.001Z,9.85
2023-01-19T06:04:10.047Z,9.07
2023-01-19T06:05:42.730Z,9.93
2023-01-19T06:07:15.592Z,8.57
2023-01-19T06:08:48.387Z,9.50
2023-01-19T06:10:21.168Z,9.35
2023-01-19T06:11:56.454Z,10.18
2023-01-19T06:13:29.155Z,9.63
2023-01-19T06:15:01.952Z,9.90
2023-01-19T06:16:34.767Z,9.82
2023-01-19T06:18:07.465Z,10.25
2023-01-19T06:19:41.799Z,9.80
2023-01-19T06:21:14.612Z,10.43
2023-01-19T06:22:47.905Z,10.02
2023-01-19T06:24:20.620Z,10.48
2023-01-19T06:25:53.435Z,10.35
2023-01-19T06:27:26.239Z,11.07
2023-01-19T06:28:58.927Z,10.38
2023-01-19T06:30:31.720Z,9.93
2023-01-19T06:32:04.578Z,10.55
2023-01-19T06:33:37.324Z,10.85
2023-01-19T06:35:12.105Z,11.05
2023-01-19T06:36:44.831Z,10.40
2023-01-19T06:38:18.458Z,11.20
2023-01-19T06:39:51.166Z,11.30
2023-01-19T06:41:23.896Z,11.02
2023-01-19T06:42:56.649Z,11.43
2023-01-19T06:44:29.326Z,11.77
2023-01-19T06:46:02.265Z,11.25
2023-01-19T06:47:35.035Z,11.15
2023-01-19T06:49:07.976Z,11.32
2023-01-19T06:50:42.036Z,11.27
2023-01-19T06:52:15.918Z,11.57
2023-01-19T06:53:48.741Z,11.30
2023-01-19T06:55:21.426Z,12.07
2023-01-19T06:56:56.041Z,10.85
2023-01-19T06:58:29.227Z,11.02
2023-01-19T07:00:05.121Z,11.75
2023-01-19T07:01:38.255Z,11.73
2023-01-19T07:03:20.456Z,12.00
2023-01-19T07:04:53.216Z,11.40
2023-01-19T07:06:27.287Z,11.75
2023-01-19T07:08:00.013Z,11.95
2023-01-19T07:09:32.726Z,12.18
2023-01-19T07:11:26.172Z,11.73
2023-01-19T07:13:00.508Z,12.27
2023-01-19T07:14:33.972Z,11.70
2023-01-19T07:16:08.312Z,11.93
2023-01-19T07:17:42.057Z,11.13
2023-01-19T07:19:15.276Z,11.65
2023-01-19T07:20:49.181Z,11.23
2023-01-19T07:22:23.252Z,11.15
2023-01-19T07:23:56.009Z,11.20
2023-01-19T07:25:28.703Z,10.63
2023-01-19T07:27:01.372Z,10.95
2023-01-19T07:28:34.109Z,11.57
2023-01-19T07:30:07.957Z,11.93
2023-01-19T07:31:40.788Z,11.27
2023-01-19T07:33:13.660Z,11.82
2023-01-19T07:34:46.383Z,10.63
2023-01-19T07:36:19.122Z,11.40
2023-01-19T07:37:53.141Z,11.77
2023-01-19T07:39:25.960Z,12.02
2023-01-19T07:41:02.046Z,11.65
2023-01-19T07:42:34.804Z,11.60
2023-01-19T07:44:08.598Z,11.63
2023-01-19T07:45:41.346Z,11.57
2023-01-19T07:47:14.088Z,11.07
2023-01-19T07:48:47.341Z,11.80
2023-01-19T07:50:21.261Z,11.10
2023-01-19T07:51:56.203Z,11.10
2023-01-19T07:53:30.274Z,10.85
2023-01-19T07:55:03.561Z,11.38
2023-01-19T07:56:36.476Z,10.68
2023-01-19T07:58:09.206Z,11.00
2023-01-19T07:59:41.877Z,10.85
2023-01-19T08:01:15.395Z,10.70
2023-01-19T08:02:49.854Z,10.57
2023-01-19T08:04:22.658Z,10.48
2023-01-19T08:05:56.932Z,10.57
2023-01-19T08:07:29.653Z,10.32
2023-01-19T08:09:05.559Z,10.95
2023-01-19T08:10:38.312Z,10.70
2023-01-19T08:12:11.411Z,10.85
2023-01-19T08:13:44.334Z,10.80
2023-01-19T08:15:17.431Z,11.00
2023-01-19T08:16:50.149Z,10.52
2023-01-19T08:18:22.896Z,10.23
2023-01-19T08:19:55.584Z,10.57
2023-01-19T08:21:29.056Z,10.35
2023-01-19T08:23:02.925Z,9.40
2023-01-19T08:24:37.275Z,9.70
2023-01-19T08:26:24.069Z,9.20
2023-01-19T08:27:57.419Z,9.35
2023-01-19T08:29:31.802Z,8.75
2023-01-19T08:31:18.698Z,9.80
2023-01-19T08:32:52.496Z,8.95
2023-01-19T08:34:25.350Z,9.25
2023-01-19T08:35:58.209Z,8.63
2023-01-19T08:37:32.659Z,8.73
2023-01-19T08:39:06.720Z,8.45
2023-01-19T08:40:42.149Z,8.82
2023-01-19T08:42:14.830Z,8.27
2023-01-19T08:43:47.610Z,8.02
2023-01-19T08:45:20.340Z,8.60
2023-01-19T08:46:53.021Z,9.35
2023-01-19T08:48:25.694Z,8.10
2023-01-19T08:49:58.418Z,8.18
2023-01-19T08:51:31.090Z,9.02
2023-01-19T08:53:06.532Z,8.80
2023-01-19T08:54:40.425Z,8.68
2023-01-19T08:56:14.778Z,9.48
2023-01-19T08:57:47.477Z,8.63
2023-01-19T08:59:20.221Z,8.48
2023-01-19T09:00:53.047Z,8.93
2023-01-19T09:02:25.851Z,9.32
2023-01-19T09:03:59.027Z,8.45
2023-01-19T09:05:35.456Z,8.07
2023-01-19T09:07:08.149Z,8.45
2023-01-19T09:08:40.938Z,9.23
2023-01-19T09:10:13.723Z,8.52
2023-01-19T09:11:47.777Z,9.52
2023-01-19T09:13:21.199Z,9.10
2023-01-19T09:14:53.907Z,8.98
2023-01-19T09:16:28.538Z,9.10
2023-01-19T09:18:02.137Z,9.38
2023-01-19T09:19:35.156Z,9.25
2023-01-19T09:21:07.088Z,9.20
2023-01-19T09:22:40.213Z,9.02
2023-01-19T09:24:13.037Z,8.60
2023-01-19T09:25:47.829Z,9.55
2023-01-19T09:27:21.844Z,8.82
2023-01-19T09:28:54.580Z,9.30
2023-01-19T09:30:28.267Z,8.43
2023-01-19T09:32:00.973Z,8.38
2023-01-19T09:33:33.794Z,8.82
2023-01-19T09:35:06.954Z,8.82
2023-01-19T09:36:39.894Z,8.82
2023-01-19T09:38:13.217Z,7.97
2023-01-19T09:39:45.979Z,8.13
2023-01-19T09:41:22.422Z,8.95
2023-01-19T09:42:59.361Z,8.18
2023-01-19T09:44:36.597Z,8.32
2023-01-19T09:46:15.177Z,8.13
2023-01-19T09:47:50.476Z,7.90
2023-01-19T09:49:31.593Z,8.13
2023-01-19T09:51:08.517Z,8.45
2023-01-19T09:52:44.653Z,7.60
2023-01-19T09:54:19.178Z,7.30
2023-01-19T09:55:52.266Z,7.50
2023-01-19T09:57:27.152Z,7.50
2023-01-19T09:59:01.821Z,7.22
2023-01-19T10:00:34.710Z,7.28
2023-01-19T10:02:19.779Z,7.00
2023-01-19T10:04:05.852Z,7.15
2023-01-19T10:05:44.674Z,7.32
2023-01-19T10:07:33.052Z,7.63
2023-01-19T10:09:13.724Z,7.70
2023-01-19T10:10:52.628Z,7.72
2023-01-19T10:12:36.583Z,7.68
2023-01-19T10:14:20.135Z,7.32
2023-01-19T10:15:59.301Z,7.10
2023-01-19T10:17:44.576Z,6.80
2023-01-19T10:19:24.583Z,7.85
2023-01-19T10:21:05.568Z,7.75
2023-01-19T10:22:38.875Z,7.82
2023-01-19T10:24:18.831Z,8.10
2023-01-19T10:25:52.288Z,7.93
2023-01-19T10:27:29.177Z,7.90
2023-01-19T10:29:05.856Z,8.32
2023-01-19T10:30:42.368Z,8.05
2023-01-19T10:32:19.671Z,8.10
2023-01-19T10:33:54.012Z,8.02
2023-01-19T10:35:26.807Z,8.35
2023-01-19T10:37:06.114Z,8.77
2023-01-19T10:38:38.980Z,8.00
2023-01-19T10:40:23.080Z,8.00
2023-01-19T10:41:55.793Z,7.93
2023-01-19T10:43:42.489Z,7.65
2023-01-19T10:45:17.520Z,7.60
2023-01-19T10:46:52.299Z,7.15
2023-01-19T10:48:25.250Z,7.68
2023-01-19T10:49:58.042Z,7.18
2023-01-19T10:51:30.884Z,7.35
2023-01-19T10:53:06.345Z,7.18
2023-01-19T10:54:39.211Z,7.20
2023-01-19T10:56:18.061Z,7.03
2023-01-19T10:57:52.994Z,6.63
2023-01-19T10:59:35.445Z,6.38
2023-01-19T11:01:16.427Z,6.72
2023-01-19T11:02:52.247Z,6.70
2023-01-19T11:04:29.851Z,6.28
2023-01-19T11:06:21.113Z,6.60
2023-01-19T11:07:53.912Z,6.20
2023-01-19T11:09:26.575Z,6.63
2023-01-19T11:11:04.239Z,6.10
2023-01-19T11:12:42.059Z,6.22
2023-01-19T11:14:18.132Z,5.60
2023-01-19T11:15:55.032Z,4.82
2023-01-19T11:17:28.268Z,5.25
2023-01-19T11:19:03.486Z,5.50
2023-01-19T11:20:44.096Z,5.78
2023-01-19T11:22:21.720Z,5.85
2023-01-19T11:23:56.796Z,5.47
2023-01-19T11:25:33.433Z,5.30
2023-01-19T11:27:06.253Z,5.30
2023-01-19T11:28:44.902Z,5.88
2023-01-19T11:30:20.929Z,5.93
2023-01-19T11:31:55.281Z,5.45
2023-01-19T11:33:35.285Z,5.20
2023-01-19T11:35:34.393Z,4.93
2023-01-19T11:37:25.937Z,5.15
2023-01-19T11:39:00.306Z,5.15
2023-01-19T11:40:33.778Z,5.70
2023-01-19T11:42:07.238Z,5.55
2023-01-19T11:43:49.094Z,5.28
2023-01-19T11:45:23.578Z,5.05
2023-01-19T11:46:59.310Z,5.63
2023-01-19T11:48:37.121Z,5.10
2023-01-19T11:50:21.207Z,5.40
2023-01-19T11:52:00.837Z,4.97
2023-01-19T11:53:35.112Z,5.07
2023-01-19T11:55:17.887Z,4.93
2023-01-19T11:56:52.131Z,5.32
2023-01-19T11:58:26.574Z,5.10
2023-01-19T12:00:03.473Z,5.43
2023-01-19T12:01:40.135Z,5.53
2023-01-19T12:03:18.792Z,5.03
2023-01-19T12:04:53.797Z,4.95
2023-01-19T12:06:30.927Z,5.88
2023-01-19T12:08:11.160Z,5.40
2023-01-19T12:09:46.853Z,4.78
2023-01-19T12:11:25.868Z,5.47
2023-01-19T12:12:58.915Z,5.07
2023-01-19T12:14:37.199Z,5.38
2023-01-19T12:16:13.862Z,5.63
2023-01-19T12:17:49.631Z,5.03
2023-01-19T12:19:28.558Z,5.53
2023-01-19T12:21:03.826Z,5.07
2023-01-19T12:22:42.241Z,5.47
2023-01-19T12:24:19.252Z,5.38
2023-01-19T12:26:09.413Z,5.57
2023-01-19T12:27:43.959Z,5.30
2023-01-19T12:29:21.763Z,4.60
2023-01-19T12:30:54.916Z,5.10
2023-01-19T12:32:35.183Z,5.10
2023-01-19T12:34:46.418Z,4.68
2023-01-19T12:36:39.501Z,5.00
2023-01-19T12:38:52.212Z,5.30
2023-01-19T12:40:28.892Z,5.25
2023-01-19T12:42:14.574Z,5.82
2023-01-19T12:43:47.945Z,5.72
2023-01-19T12:45:25.645Z,5.13
2023-01-19T12:47:04.059Z,4.82
2023-01-19T12:48:42.784Z,5.35
2023-01-19T12:50:21.091Z,5.60
2023-01-19T12:51:56.636Z,5.15
2023-01-19T12:53:30.770Z,4.80
2023-01-19T12:55:21.916Z,4.90
2023-01-19T12:57:01.560Z,5.30
2023-01-19T12:58:34.694Z,5.88
2023-01-19T13:00:24.941Z,4.45
2023-01-19T13:02:41.791Z,4.55
2023-01-19T13:04:33.230Z,4.30
2023-01-19T13:06:06.059Z,4.47
2023-01-19T13:08:09.149Z,3.80
2023-01-19T13:09:43.094Z,3.72
2023-01-19T13:11:17.656Z,3.72
2023-01-19T13:13:17.481Z,3.55
2023-01-19T13:14:51.111Z,4.05
2023-01-19T13:16:51.372Z,4.20
2023-01-19T13:18:26.199Z,4.22
2023-01-19T13:20:23.912Z,4.05
2023-01-19T13:21:56.595Z,3.90
2023-01-19T13:23:50.506Z,4.13
2023-01-19T13:25:29.331Z,4.20
2023-01-19T13:27:03.465Z,4.15
2023-01-19T13:28:42.396Z,4.72
2023-01-19T13:30:18.774Z,4.88
2023-01-19T13:31:52.671Z,5.97
2023-01-19T13:33:28.122Z,5.30
2023-01-19T13:35:02.199Z,4.90
2023-01-19T13:36:37.978Z,5.03
2023-01-19T13:38:13.806Z,5.53
2023-01-19T13:39:49.916Z,5.63
2023-01-19T13:41:25.304Z,5.22
2023-01-19T13:42:58.741Z,5.57
2023-01-19T13:44:39.054Z,5.40
2023-01-19T13:46:14.633Z,5.13
2023-01-19T13:47:49.939Z,4.95
2023-01-19T13:49:29.399Z,4.97
2023-01-19T13:51:07.580Z,4.40
2023-01-19T13:52:45.698Z,4.45
2023-01-19T13:54:18.599Z,4.90
2023-01-19T13:56:06.823Z,5.00
2023-01-19T13:57:42.133Z,4.40
2023-01-19T13:59:14.947Z,4.78
2023-01-19T14:00:49.044Z,4.30
2023-01-19T14:02:22.389Z,4.50
2023-01-19T14:03:55.900Z,5.18
2023-01-19T14:05:31.014Z,5.30
2023-01-19T14:07:06.931Z,4.68
2023-01-19T14:08:39.609Z,5.07
2023-01-19T14:10:16.414Z,5.05
2023-01-19T14:12:07.160Z,4.50
2023-01-19T14:13:45.111Z,4.72
2023-01-19T14:15:18.000Z,4.47
2023-01-19T14:16:52.112Z,4.25
2023-01-19T14:18:28.032Z,4.75
2023-01-19T14:20:01.771Z,4.57
2023-01-19T14:21:41.918Z,4.63
2023-01-19T14:23:40.099Z,4.50
2023-01-19T14:25:33.020Z,4.10
2023-01-19T14:27:14.177Z,4.15
2023-01-19T14:28:47.213Z,3.97
2023-01-19T14:30:24.911Z,3.80
2023-01-19T14:32:14.764Z,4.00
2023-01-19T14:33:49.104Z,4.28
2023-01-19T14:35:25.886Z,4.25
2023-01-19T14:36:59.345Z,4.07
2023-01-19T14:38:32.047Z,3.95
2023-01-19T14:40:18.595Z,4.22
2023-01-19T14:41:53.356Z,4.47
2023-01-19T14:43:28.453Z,4.00
2023-01-19T14:45:03.592Z,4.50
2023-01-19T14:46:36.691Z,4.38
2023-01-19T14:48:18.208Z,4.15
2023-01-19T14:49:51.149Z,4.72
2023-01-19T14:51:25.273Z,4.15
2023-01-19T14:53:01.025Z,3.78
2023-01-19T14:54:36.930Z,4.53
2023-01-19T14:56:09.865Z,3.67
2023-01-19T14:57:42.562Z,4.72
2023-01-19T14:59:15.246Z,3.70
2023-01-19T15:00:48.949Z,4.45
2023-01-19T15:02:21.688Z,4.32
2023-01-19T15:03:56.694Z,4.30
2023-01-19T15:05:29.433Z,4.38
2023-01-19T15:07:02.115Z,4.70
2023-01-19T15:08:37.453Z,4.53
2023-01-19T15:10:20.524Z,4.13
2023-01-19T15:11:53.832Z,4.50
2023-01-19T15:13:28.420Z,4.75
2023-01-19T15:15:02.635Z,4.65
2023-01-19T15:16:35.860Z,5.10
2023-01-19T15:18:14.584Z,5.28
2023-01-19T15:19:48.611Z,6.43
2023-01-19T15:21:23.547Z,5.50
2023-01-19T15:22:56.258Z,6.13
2023-01-19T15:24:28.916Z,6.97
2023-01-19T15:26:03.169Z,5.93
2023-01-19T15:27:35.904Z,5.95
2023-01-19T15:29:27.129Z,5.70
2023-01-19T15:31:00.868Z,6.68
2023-01-19T15:32:33.547Z,5.95
2023-01-19T15:34:06.231Z,4.63
2023-01-19T15:35:40.318Z,5.72
2023-01-19T15:37:13.024Z,7.00
2023-01-19T15:38:46.035Z,6.47
2023-01-19T15:40:22.571Z,5.70
2023-01-19T15:41:55.421Z,6.40
2023-01-19T15:43:28.096Z,5.72
2023-01-19T15:45:00.777Z,7.80
2023-01-19T15:46:34.409Z,6.15
2023-01-19T15:48:09.376Z,6.50
2023-01-19T15:49:42.068Z,7.00
2023-01-19T15:51:17.734Z,7.97
2023-01-19T15:52:50.480Z,7.45
2023-01-19T15:54:23.203Z,7.38
2023-01-19T15:55:56.805Z,6.30
2023-01-19T15:57:29.587Z,8.95
2023-01-19T15:59:02.808Z,7.15
2023-01-19T16:00:36.426Z,5.00
2023-01-19T16:02:10.921Z,6.20
2023-01-19T16:03:44.083Z,6.13
2023-01-19T16:05:16.942Z,6.00
2023-01-19T16:06:51.037Z,5.60
2023-01-19T16:08:23.764Z,5.47
2023-01-19T16:09:56.578Z,6.05
2023-01-19T16:11:30.590Z,5.60
2023-01-19T16:13:04.751Z,5.82
2023-01-19T16:14:37.465Z,7.25
2023-01-19T16:16:15.615Z,6.78
2023-01-19T16:17:48.382Z,6.85
2023-01-19T16:19:21.088Z,6.60
2023-01-19T16:20:53.779Z,5.88
2023-01-19T16:22:27.815Z,6.60
2023-01-19T16:24:00.535Z,6.95
2023-01-19T16:25:33.263Z,6.78
2023-01-19T16:27:08.001Z,7.43
2023-01-19T16:28:40.705Z,6.75
2023-01-19T16:30:16.220Z,6.40
2023-01-19T16:31:49.347Z,7.03
2023-01-19T16:33:22.115Z,7.18
2023-01-19T16:34:54.845Z,8.07
2023-01-19T16:36:29.548Z,6.93
2023-01-19T16:38:03.962Z,7.25
2023-01-19T16:39:36.695Z,6.43
2023-01-19T16:41:11.107Z,6.03
2023-01-19T16:42:46.518Z,5.50
2023-01-19T16:44:19.214Z,5.53
2023-01-19T16:45:59.879Z,6.00
2023-01-19T16:47:32.666Z,5.65
2023-01-19T16:49:07.706Z,6.53
2023-01-19T16:50:40.379Z,6.45
2023-01-19T16:52:13.118Z,6.80
2023-01-19T16:53:47.317Z,7.28
2023-01-19T16:55:20.028Z,7.90
2023-01-19T16:56:53.838Z,9.13
2023-01-19T16:58:26.534Z,9.68
2023-01-19T16:59:59.221Z,9.00
2023-01-19T17:01:32.169Z,8.68
2023-01-19T17:03:04.989Z,9.07
2023-01-19T17:04:37.697Z,8.68
2023-01-19T17:06:11.104Z,9.02
2023-01-19T17:07:44.372Z,9.15
2023-01-19T17:09:18.553Z,8.30
2023-01-19T17:10:51.243Z,7.65
2023-01-19T17:12:24.022Z,7.93
2023-01-19T17:14:00.005Z,8.93
2023-01-19T17:15:32.692Z,8.68
2023-01-19T17:17:09.164Z,7.40
2023-01-19T17:18:41.845Z,7.70
2023-01-19T17:20:14.852Z,9.60
2023-01-19T17:21:49.469Z,9.68
2023-01-19T17:23:22.221Z,11.77
2023-01-19T17:24:56.268Z,14.00
2023-01-19T17:26:30.879Z,19.85
2023-01-19T17:28:03.634Z,16.83
2023-01-19T17:29:36.442Z,14.52
2023-01-19T17:31:10.612Z,15.20
2023-01-19T17:32:43.428Z,14.45
2023-01-19T17:34:16.133Z,12.93
2023-01-19T17:35:49.136Z,13.52
2023-01-19T17:37:21.881Z,15.13
2023-01-19T17:38:56.507Z,14.65
2023-01-19T17:40:30.932Z,18.52
2023-01-19T17:42:03.714Z,15.88
2023-01-19T17:43:36.412Z,14.80
2023-01-19T17:45:11.019Z,13.93
2023-01-19T17:46:43.728Z,17.15
2023-01-19T17:48:17.385Z,18.27
2023-01-19T17:49:50.098Z,15.18
2023-01-19T17:51:23.802Z,15.20
2023-01-19T17:52:56.509Z,14.32
2023-01-19T17:54:29.263Z,13.73
2023-01-19T17:56:05.368Z,13.93
2023-01-19T17:57:38.380Z,14.55
2023-01-19T17:59:11.158Z,16.85
2023-01-19T18:00:43.841Z,11.93
2023-01-19T18:02:16.715Z,10.52
2023-01-19T18:03:49.747Z,11.77
2023-01-19T18:05:24.757Z,10.60
2023-01-19T18:06:57.909Z,9.48
2023-01-19T18:08:30.617Z,8.82
2023-01-19T18:10:03.323Z,8.77
2023-01-19T18:11:37.378Z,8.18
2023-01-19T18:13:10.045Z,8.52
2023-01-19T18:14:42.949Z,7.90
2023-01-19T18:16:18.132Z,7.63
2023-01-19T18:17:50.839Z,8.35
2023-01-19T18:19:23.520Z,8.43
2023-01-19T18:21:00.275Z,8.20
2023-01-19T18:22:33.429Z,9.77
2023-01-19T18:24:07.168Z,9.23
2023-01-19T18:25:40.076Z,9.70
2023-01-19T18:27:16.203Z,9.30
2023-01-19T18:28:49.822Z,8.55
2023-01-19T18:30:22.730Z,13.70
2023-01-19T18:31:55.440Z,10.80
2023-01-19T18:33:28.608Z,13.25
2023-01-19T18:35:02.352Z,21.10
2023-01-19T18:36:35.104Z,21.17
2023-01-19T18:38:29.200Z,51.22
2023-01-19T18:40:04.231Z,42.67
2023-01-19T18:41:41.492Z,42.20
2023-01-19T18:43:15.508Z,24.10
2023-01-19T18:44:48.176Z,21.73
2023-01-19T18:46:21.145Z,22.25
2023-01-19T18:47:53.885Z,14.40
2023-01-19T18:49:26.592Z,24.52
2023-01-19T18:51:03.143Z,31.02
2023-01-19T18:52:35.853Z,36.40
2023-01-19T18:54:09.813Z,33.40
2023-01-19T18:55:52.086Z,31.42
2023-01-19T18:57:25.049Z,40.90
2023-01-19T18:58:59.132Z,54.25
2023-01-19T19:00:31.923Z,77.53
2023-01-19T19:02:06.716Z,52.13
2023-01-19T19:03:39.636Z,44.15
2023-01-19T19:05:12.442Z,36.03
2023-01-19T19:06:45.148Z,22.15
2023-01-19T19:08:17.959Z,15.25
2023-01-19T19:09:50.802Z,13.32
2023-01-19T19:11:25.198Z,11.73
2023-01-19T19:12:58.701Z,10.52
2023-01-19T19:14:33.081Z,10.30
2023-01-19T19:16:06.997Z,9.63
2023-01-19T19:17:39.864Z,10.05
2023-01-19T19:19:15.258Z,9.88
2023-01-19T19:20:48.036Z,10.85
2023-01-19T19:22:20.784Z,11.15
2023-01-19T19:23:55.249Z,11.13
2023-01-19T19:25:27.987Z,11.35
2023-01-19T19:27:00.721Z,11.68
2023-01-19T19:28:34.251Z,10.45
2023-01-19T19:30:10.149Z,9.43
2023-01-19T19:31:42.993Z,9.70
2023-01-19T19:33:15.816Z,9.80
2023-01-19T19:34:50.374Z,9.20
2023-01-19T19:36:24.691Z,9.05
2023-01-19T19:37:58.145Z,9.00
2023-01-19T19:39:30.940Z,8.63
2023-01-19T19:41:06.492Z,14.48
2023-01-19T19:42:39.503Z,10.20
2023-01-19T19:44:12.899Z,10.35
2023-01-19T19:45:57.419Z,11.82
2023-01-19T19:47:31.388Z,9.38
2023-01-19T19:49:04.141Z,10.93
2023-01-19T19:50:36.831Z,9.38
2023-01-19T19:52:09.539Z,9.30
2023-01-19T19:53:42.499Z,8.82
2023-01-19T19:55:15.257Z,7.90
2023-01-19T19:56:50.290Z,8.68
2023-01-19T19:58:22.997Z,9.32
2023-01-19T19:59:55.672Z,8.52
2023-01-19T20:01:33.456Z,8.85
2023-01-19T20:03:13.267Z,8.55
2023-01-19T20:04:46.132Z,7.78
2023-01-19T20:06:21.775Z,8.02
2023-01-19T20:07:54.457Z,7.88
2023-01-19T20:09:27.169Z,7.72
2023-01-19T20:11:06.217Z,8.13
2023-01-19T20:12:38.942Z,8.15
2023-01-19T20:14:13.259Z,7.72
2023-01-19T20:15:46.666Z,8.10
2023-01-19T20:17:20.873Z,7.80
2023-01-19T20:18:55.008Z,8.43
2023-01-19T20:20:28.826Z,8.25
2023-01-19T20:22:01.589Z,8.93
2023-01-19T20:23:34.374Z,9.07
2023-01-19T20:25:08.003Z,8.40
2023-01-19T20:26:42.708Z,8.75
2023-01-19T20:28:15.476Z,8.82
2023-01-19T20:29:51.814Z,8.43
2023-01-19T20:31:27.174Z,8.77
2023-01-19T20:33:01.899Z,8.45
2023-01-19T20:34:35.575Z,8.85
2023-01-19T20:36:08.626Z,9.18
2023-01-19T20:37:41.367Z,9.45
2023-01-19T20:39:14.063Z,9.13
2023-01-19T20:40:46.784Z,9.57
2023-01-19T20:42:19.534Z,11.30
2023-01-19T20:43:52.994Z,10.95
2023-01-19T20:45:26.149Z,9.40
2023-01-19T20:46:59.261Z,9.13
2023-01-19T20:48:33.372Z,9.13
2023-01-19T20:50:07.757Z,9.13
2023-01-19T20:51:43.205Z,9.48
2023-01-19T20:53:16.204Z,9.40
2023-01-19T20:54:48.981Z,9.07
2023-01-19T20:56:21.777Z,8.90